Time;durP1;ratioP1;P1;durP2;ratioP2;P2;SDS_P1;SDS_P2;PMS_P1;PMS_P2;Temp;Humidity;BMP_temperature;BMP_pressure;BME280_temperature;BME280_humidity;BME280_pressure;Samples;Min_cycle;Max_cycle;Signal;HPM_P1;HPM_P2
2022/10/10 00:02:07;;;;;;;411.27;397.07;;;5.70;99.90;;;;;;5003954;28;20454;-84
2022/10/10 00:04:34;;;;;;;447.53;431.43;;;5.60;99.90;;;;;;5002809;28;20458;-85
2022/10/10 00:07:01;;;;;;;506.77;487.57;;;5.60;99.90;;;;;;5023441;28;20483;-85
2022/10/10 00:09:27;;;;;;;535.43;515.03;;;5.70;99.90;;;;;;5022898;28;20556;-85
2022/10/10 00:11:56;;;;;;;546.53;525.07;;;5.60;99.90;;;;;;5022630;28;20473;-85
2022/10/10 00:14:22;;;;;;;605.10;580.73;;;5.70;99.90;;;;;;5022582;28;20945;-83
2022/10/10 00:16:49;;;;;;;614.83;589.53;;;5.80;99.90;;;;;;5022988;28;20476;-85
2022/10/10 00:19:16;;;;;;;599.00;573.60;;;5.80;99.90;;;;;;5022282;28;20460;-85
2022/10/10 00:21:43;;;;;;;615.37;589.60;;;5.80;99.90;;;;;;5020276;28;20441;-84
2022/10/10 00:24:09;;;;;;;618.43;592.17;;;5.90;99.90;;;;;;5022881;28;20938;-82
2022/10/10 00:26:36;;;;;;;589.73;564.73;;;5.90;99.90;;;;;;5021648;28;20477;-85
2022/10/10 00:29:04;;;;;;;572.67;548.87;;;5.90;99.90;;;;;;5022969;28;20453;-84
2022/10/10 00:31:31;;;;;;;522.43;502.33;;;6.00;99.90;;;;;;5022362;28;20473;-84
2022/10/10 00:33:58;;;;;;;508.10;488.70;;;5.80;99.90;;;;;;5022812;28;20452;-85
2022/10/10 00:36:24;;;;;;;475.50;457.10;;;5.70;99.90;;;;;;5022572;28;20465;-85
2022/10/10 00:38:51;;;;;;;477.80;459.70;;;5.70;99.90;;;;;;5022827;28;20460;-85
2022/10/10 00:41:18;;;;;;;481.37;463.03;;;5.70;99.90;;;;;;5022534;28;20453;-85
2022/10/10 00:44:01;;;;;;;524.03;503.80;;;5.60;99.90;;;;;;5022993;28;20457;-85
2022/10/10 00:46:29;;;;;;;536.60;515.30;;;5.60;99.90;;;;;;5023342;28;20473;-86
2022/10/10 00:48:56;;;;;;;509.80;489.73;;;5.60;99.90;;;;;;5023064;28;20479;-86
2022/10/10 00:51:23;;;;;;;531.50;510.40;;;5.50;99.90;;;;;;5022318;28;20484;-85
2022/10/10 00:53:52;;;;;;;532.87;511.90;;;5.50;99.90;;;;;;5024629;28;20464;-85
2022/10/10 00:56:24;;;;;;;555.57;532.77;;;5.50;99.90;;;;;;5026761;28;20476;-85
2022/10/10 00:58:53;;;;;;;555.17;532.37;;;5.50;99.90;;;;;;5026846;28;20449;-85
2022/10/10 01:01:20;;;;;;;575.67;552.03;;;5.50;99.90;;;;;;5027518;28;20835;-85
2022/10/10 01:03:49;;;;;;;616.83;590.63;;;5.40;99.90;;;;;;5027031;28;20453;-85
2022/10/10 01:06:16;;;;;;;579.77;555.87;;;5.40;99.90;;;;;;5025941;28;20482;-85
2022/10/10 01:08:43;;;;;;;699.10;666.80;;;5.30;99.90;;;;;;5027480;28;20452;-84
2022/10/10 01:11:24;;;;;;;665.17;635.87;;;5.30;99.90;;;;;;5026729;28;20469;-84
2022/10/10 01:14:00;;;;;;;678.10;647.80;;;5.30;99.90;;;;;;5026613;28;20456;-85
2022/10/10 01:16:33;;;;;;;700.13;667.57;;;5.20;99.90;;;;;;5027946;28;20894;-85
2022/10/10 01:19:15;;;;;;;775.33;736.30;;;5.30;99.90;;;;;;5026411;28;20453;-85
2022/10/10 01:21:50;;;;;;;865.77;816.63;;;5.30;99.90;;;;;;5026096;28;20832;-85
2022/10/10 01:24:47;;;;;;;869.63;819.53;;;5.40;99.90;;;;;;5025945;28;20949;-85
2022/10/10 01:27:25;;;;;;;876.80;825.50;;;5.60;99.90;;;;;;5005144;28;20450;-85
2022/10/10 01:29:57;;;;;;;843.50;796.77;;;5.70;99.90;;;;;;5008850;28;20457;-84
2022/10/10 01:32:32;;;;;;;849.13;802.33;;;5.70;99.90;;;;;;5026307;28;20811;-84
2022/10/10 01:35:12;;;;;;;832.20;786.77;;;5.60;99.90;;;;;;5024825;28;20536;-84
2022/10/10 01:37:44;;;;;;;821.03;776.43;;;5.60;99.90;;;;;;5026361;28;20984;-85
2022/10/10 01:40:20;;;;;;;831.23;785.37;;;5.60;99.90;;;;;;5026036;28;20455;-85
2022/10/10 01:42:50;;;;;;;847.83;801.40;;;5.70;99.90;;;;;;5026173;28;20452;-85
2022/10/10 01:45:19;;;;;;;824.33;780.63;;;5.70;99.90;;;;;;5025082;28;20548;-85
2022/10/10 01:47:46;;;;;;;835.67;791.10;;;5.80;99.90;;;;;;5025841;28;20453;-84
2022/10/10 01:50:17;;;;;;;816.23;773.23;;;5.80;99.90;;;;;;5025783;28;20460;-86
2022/10/10 01:52:51;;;;;;;833.37;789.07;;;5.90;99.90;;;;;;5026166;28;20484;-84
2022/10/10 01:55:45;;;;;;;817.70;775.03;;;5.90;99.90;;;;;;5024773;28;20477;-84
2022/10/10 01:58:24;;;;;;;773.50;735.93;;;5.90;99.90;;;;;;5025098;28;20460;-85
2022/10/10 02:00:59;;;;;;;758.00;721.30;;;6.00;99.90;;;;;;5020661;28;20995;-85
2022/10/10 02:03:30;;;;;;;776.33;739.40;;;6.00;99.90;;;;;;5026479;28;20453;-85
2022/10/10 02:05:59;;;;;;;753.90;718.77;;;6.10;99.90;;;;;;5022319;28;20483;-85
2022/10/10 02:08:32;;;;;;;743.27;709.20;;;6.00;99.90;;;;;;5023757;28;20453;-85
2022/10/10 02:11:01;;;;;;;739.87;705.70;;;6.10;99.90;;;;;;5023594;28;20457;-85
2022/10/10 02:13:33;;;;;;;755.13;719.90;;;6.00;99.90;;;;;;5023009;28;20472;-84
2022/10/10 02:16:03;;;;;;;758.63;723.27;;;6.00;99.90;;;;;;5022790;28;20495;-85
2022/10/10 02:18:33;;;;;;;796.43;757.40;;;6.00;99.90;;;;;;5021647;28;20464;-85
2022/10/10 02:21:02;;;;;;;795.43;756.90;;;6.10;99.90;;;;;;5022348;28;20450;-85
2022/10/10 02:23:29;;;;;;;792.67;752.93;;;6.10;99.90;;;;;;5024160;28;20449;-85
2022/10/10 02:25:57;;;;;;;786.93;748.53;;;6.20;99.90;;;;;;5035636;22;20489;-85
2022/10/10 02:28:28;;;;;;;789.80;751.63;;;6.10;99.90;;;;;;5013998;28;20445;-86
2022/10/10 02:30:57;;;;;;;772.80;736.30;;;6.10;99.90;;;;;;5014362;28;20529;-86
2022/10/10 02:33:32;;;;;;;747.47;712.20;;;6.00;99.90;;;;;;5014221;28;20844;-86
2022/10/10 02:36:00;;;;;;;766.70;730.33;;;6.00;99.90;;;;;;5013289;28;20695;-85
2022/10/10 02:38:28;;;;;;;763.60;727.57;;;6.00;99.90;;;;;;5013937;28;20449;-85
2022/10/10 02:40:57;;;;;;;775.00;738.60;;;6.00;99.90;;;;;;5014009;28;20946;-85
2022/10/10 02:43:24;;;;;;;796.23;757.43;;;6.00;99.90;;;;;;5013815;28;20834;-85
2022/10/10 02:45:51;;;;;;;809.97;769.50;;;6.00;99.90;;;;;;5012996;28;20478;-86
2022/10/10 02:48:18;;;;;;;807.07;767.47;;;6.00;99.90;;;;;;5013566;28;20460;-85
2022/10/10 02:50:46;;;;;;;800.70;760.67;;;6.00;99.90;;;;;;5013925;28;20461;-85
2022/10/10 02:53:13;;;;;;;802.70;762.60;;;6.00;99.90;;;;;;5013405;28;20481;-85
2022/10/10 02:55:40;;;;;;;794.93;755.93;;;6.00;99.90;;;;;;5012743;28;20482;-85
2022/10/10 02:58:07;;;;;;;808.77;768.23;;;6.10;99.90;;;;;;5013730;28;20452;-86
2022/10/10 03:00:33;;;;;;;808.20;768.60;;;6.10;99.90;;;;;;5013409;28;20453;-86
2022/10/10 03:03:00;;;;;;;808.93;768.67;;;6.10;99.90;;;;;;5013930;28;20825;-85
2022/10/10 03:05:27;;;;;;;788.07;748.77;;;6.10;99.90;;;;;;5012658;28;20473;-86
2022/10/10 03:07:55;;;;;;;800.37;760.73;;;6.20;99.90;;;;;;5013494;28;20839;-85
2022/10/10 03:10:21;;;;;;;794.87;756.03;;;6.20;99.90;;;;;;5013682;28;20465;-86
2022/10/10 03:12:48;;;;;;;795.27;756.80;;;6.20;99.90;;;;;;5013248;28;20480;-86
2022/10/10 03:15:15;;;;;;;773.57;737.33;;;6.20;99.90;;;;;;4997142;28;20958;-86
2022/10/10 03:17:42;;;;;;;772.67;736.17;;;6.20;99.90;;;;;;5012819;28;20449;-86
2022/10/10 03:20:09;;;;;;;794.33;756.83;;;6.30;99.90;;;;;;5013581;28;20938;-86
2022/10/10 03:22:36;;;;;;;765.07;729.77;;;6.30;99.90;;;;;;5013408;28;20461;-85
2022/10/10 03:25:05;;;;;;;755.50;721.37;;;6.40;99.90;;;;;;5012144;28;20449;-86
2022/10/10 03:27:31;;;;;;;746.93;713.13;;;6.30;99.90;;;;;;5013054;28;20500;-86
2022/10/10 03:29:58;;;;;;;741.57;707.77;;;6.30;99.90;;;;;;5012848;28;20453;-86
2022/10/10 03:32:25;;;;;;;748.73;715.23;;;6.30;99.90;;;;;;5012975;28;21002;-86
2022/10/10 03:34:52;;;;;;;736.83;703.67;;;6.40;99.90;;;;;;5011879;28;20457;-85
2022/10/10 03:37:19;;;;;;;754.97;720.73;;;6.30;99.90;;;;;;5013011;28;20473;-85
2022/10/10 03:39:46;;;;;;;743.23;709.33;;;6.40;99.90;;;;;;5012855;28;20449;-85
2022/10/10 03:42:14;;;;;;;762.70;726.80;;;6.40;99.90;;;;;;5012836;28;20449;-85
2022/10/10 03:44:40;;;;;;;739.30;705.93;;;6.40;99.90;;;;;;5010906;28;20461;-85
2022/10/10 03:47:07;;;;;;;729.70;696.87;;;6.40;99.90;;;;;;5012720;28;20472;-86
2022/10/10 03:49:34;;;;;;;750.27;715.37;;;6.40;99.90;;;;;;5012835;28;20464;-85
2022/10/10 03:52:01;;;;;;;777.30;740.00;;;6.30;99.90;;;;;;5012728;28;20476;-86
2022/10/10 03:54:28;;;;;;;777.93;740.30;;;6.30;99.90;;;;;;5011222;28;20951;-85
2022/10/10 03:56:54;;;;;;;799.03;759.43;;;6.30;99.90;;;;;;5012222;28;20469;-86
2022/10/10 03:59:22;;;;;;;804.03;764.13;;;6.40;99.90;;;;;;5012703;28;20456;-85
2022/10/10 04:01:49;;;;;;;782.57;744.63;;;6.40;99.90;;;;;;5012653;28;20542;-86
2022/10/10 04:04:16;;;;;;;770.07;733.10;;;6.40;99.90;;;;;;5013312;28;20457;-85
2022/10/10 04:06:43;;;;;;;776.77;738.30;;;6.40;99.90;;;;;;5016100;28;20472;-81
2022/10/10 04:09:09;;;;;;;803.60;762.87;;;6.40;99.90;;;;;;5011921;28;20480;-86
2022/10/10 04:11:37;;;;;;;787.67;748.70;;;6.40;99.90;;;;;;5011136;28;20449;-86
2022/10/10 04:14:04;;;;;;;822.03;780.40;;;6.40;99.90;;;;;;5014169;28;20536;-86
2022/10/10 04:16:32;;;;;;;799.17;759.37;;;6.50;99.90;;;;;;5012251;28;20985;-86
2022/10/10 04:23:13;;;;;;;800.17;760.10;;;6.50;99.90;;;;;;5000923;28;20464;-86
2022/10/10 04:25:41;;;;;;;792.27;750.63;;;6.60;99.90;;;;;;4985755;28;20466;-83
2022/10/10 04:28:10;;;;;;;763.07;726.57;;;6.50;99.90;;;;;;4990616;28;20458;-86
2022/10/10 04:30:37;;;;;;;764.77;727.60;;;6.50;99.90;;;;;;4991553;28;20814;-86
2022/10/10 04:33:05;;;;;;;739.90;705.53;;;6.50;99.90;;;;;;5002013;28;20484;-86
2022/10/10 04:36:20;;;;;;;739.83;704.97;;;6.40;99.90;;;;;;5016435;28;20477;-87
2022/10/10 04:38:47;;;;;;;747.23;711.43;;;6.50;99.90;;;;;;4975438;28;20455;-86
2022/10/10 04:41:14;;;;;;;751.57;715.50;;;6.40;99.90;;;;;;4995610;28;20466;-88
2022/10/10 04:43:53;;;;;;;742.87;707.77;;;6.40;99.90;;;;;;4999508;28;20458;-87
2022/10/10 04:46:43;;;;;;;771.77;729.40;;;6.30;99.90;;;;;;4999731;28;20473;-83
2022/10/10 04:49:11;;;;;;;766.23;728.60;;;6.30;99.90;;;;;;4996557;28;20915;-82
2022/10/10 04:52:16;;;;;;;802.77;761.97;;;6.20;99.90;;;;;;4998952;28;20458;-84
2022/10/10 04:54:42;;;;;;;801.40;760.23;;;6.20;99.90;;;;;;4995811;28;20508;-86
2022/10/10 04:57:09;;;;;;;818.23;775.00;;;6.20;99.90;;;;;;5009637;28;20809;-85
2022/10/10 04:59:36;;;;;;;833.70;788.23;;;6.20;99.90;;;;;;5013229;28;20465;-86
2022/10/10 05:02:03;;;;;;;828.87;784.20;;;6.20;99.90;;;;;;5012896;28;20456;-86
2022/10/10 05:04:31;;;;;;;827.43;782.80;;;6.20;99.90;;;;;;5010100;28;20493;-86
2022/10/10 05:06:58;;;;;;;822.67;777.83;;;6.10;99.90;;;;;;5012906;28;20908;-86
2022/10/10 05:09:24;;;;;;;836.77;789.73;;;6.10;99.90;;;;;;5007993;28;20461;-86
2022/10/10 05:11:51;;;;;;;851.47;803.40;;;6.00;99.90;;;;;;5003344;28;20487;-85
2022/10/10 05:14:18;;;;;;;870.03;820.43;;;6.00;99.90;;;;;;5011000;28;20867;-85
2022/10/10 05:16:44;;;;;;;886.10;833.90;;;5.90;99.90;;;;;;5010629;28;20469;-85
2022/10/10 05:19:11;;;;;;;899.40;846.07;;;6.00;99.90;;;;;;5009526;28;20460;-86
2022/10/10 05:21:39;;;;;;;887.20;834.37;;;5.90;99.90;;;;;;5011390;28;20456;-86
2022/10/10 05:24:06;;;;;;;905.57;849.77;;;5.90;99.90;;;;;;5011002;28;20456;-85
2022/10/10 05:26:33;;;;;;;896.07;841.43;;;5.90;99.90;;;;;;5010982;28;20496;-86
2022/10/10 05:29:00;;;;;;;902.97;845.63;;;5.80;99.90;;;;;;5011451;28;20457;-85
2022/10/10 05:31:27;;;;;;;913.47;855.07;;;5.90;99.90;;;;;;5011587;28;20914;-86
2022/10/10 05:33:54;;;;;;;911.47;853.27;;;5.80;99.90;;;;;;5011188;28;20531;-85
2022/10/10 05:36:21;;;;;;;913.40;854.50;;;5.80;99.90;;;;;;5010848;28;20488;-85
2022/10/10 05:38:49;;;;;;;912.53;854.07;;;5.80;99.90;;;;;;5011492;28;21004;-85
2022/10/10 05:41:15;;;;;;;901.47;845.27;;;5.90;99.90;;;;;;5014623;28;20536;-86
2022/10/10 05:43:42;;;;;;;905.73;851.77;;;5.70;99.90;;;;;;5014885;28;20870;-85
2022/10/10 05:46:09;;;;;;;905.73;851.80;;;5.60;99.90;;;;;;5015244;28;20541;-86
2022/10/10 05:48:35;;;;;;;909.70;855.20;;;5.60;99.90;;;;;;5016658;28;20448;-85
2022/10/10 05:51:02;;;;;;;902.23;848.03;;;5.50;99.90;;;;;;5015762;28;20868;-86
2022/10/10 05:53:29;;;;;;;894.23;840.70;;;5.50;99.90;;;;;;5015844;28;20469;-85
2022/10/10 05:56:00;;;;;;;895.87;840.97;;;5.50;99.90;;;;;;5015287;28;20531;-85
2022/10/10 05:58:26;;;;;;;894.40;839.73;;;5.50;99.90;;;;;;4999902;28;20826;-85
2022/10/10 06:00:53;;;;;;;895.93;840.37;;;5.40;99.90;;;;;;5017243;28;20515;-86
2022/10/10 06:03:20;;;;;;;894.43;838.17;;;5.40;99.90;;;;;;5015753;28;20449;-85
2022/10/10 06:05:50;;;;;;;896.30;837.47;;;5.40;99.90;;;;;;5015311;28;20982;-85
2022/10/10 06:08:17;;;;;;;900.83;842.73;;;5.40;99.90;;;;;;5014272;28;20460;-85
2022/10/10 06:10:46;;;;;;;895.40;836.90;;;5.40;99.90;;;;;;5014594;28;20940;-85
2022/10/10 06:13:16;;;;;;;899.57;841.07;;;5.30;99.90;;;;;;5013176;28;20483;-84
2022/10/10 06:15:43;;;;;;;885.90;828.30;;;5.30;99.90;;;;;;5014210;28;20477;-84
2022/10/10 06:18:10;;;;;;;893.83;832.30;;;5.40;99.90;;;;;;5013840;28;20837;-84
2022/10/10 06:20:40;;;;;;;894.07;830.07;;;5.50;99.90;;;;;;5013829;28;20465;-84
2022/10/10 06:23:08;;;;;;;895.30;827.57;;;5.60;99.90;;;;;;5015977;28;20445;-85
2022/10/10 06:25:36;;;;;;;902.30;835.20;;;5.70;99.90;;;;;;5013551;28;20481;-84
2022/10/10 06:28:04;;;;;;;902.90;835.93;;;5.80;99.90;;;;;;5014958;28;20457;-85
2022/10/10 06:30:33;;;;;;;888.97;822.33;;;6.00;99.90;;;;;;5014575;28;20461;-85
2022/10/10 06:33:00;;;;;;;893.17;825.67;;;6.10;99.90;;;;;;5015923;28;20518;-86
2022/10/10 06:35:27;;;;;;;890.27;822.97;;;6.30;99.90;;;;;;5015969;28;20454;-85
2022/10/10 06:37:53;;;;;;;898.10;830.40;;;6.50;99.90;;;;;;5015502;28;20452;-86
2022/10/10 06:40:20;;;;;;;906.53;836.33;;;6.60;99.90;;;;;;5015311;28;20464;-86
2022/10/10 06:42:47;;;;;;;901.27;829.37;;;6.80;99.90;;;;;;5014872;28;20460;-85
2022/10/10 06:45:13;;;;;;;893.73;821.87;;;7.00;99.90;;;;;;5013919;28;20836;-84
2022/10/10 06:47:41;;;;;;;901.17;830.43;;;7.10;99.90;;;;;;5014241;28;20472;-83
2022/10/10 06:50:09;;;;;;;911.57;840.77;;;7.30;99.90;;;;;;5013983;28;20457;-84
2022/10/10 06:52:35;;;;;;;902.17;833.57;;;7.40;99.90;;;;;;5012913;28;20484;-84
2022/10/10 06:55:02;;;;;;;910.30;842.40;;;7.60;99.90;;;;;;5013341;28;20449;-84
2022/10/10 06:57:29;;;;;;;915.17;848.70;;;7.70;99.90;;;;;;5013883;28;20473;-85
2022/10/10 06:59:55;;;;;;;912.80;850.23;;;7.90;99.90;;;;;;5013955;28;20878;-84
2022/10/10 07:02:23;;;;;;;915.67;854.67;;;8.10;99.90;;;;;;5014441;28;20468;-84
2022/10/10 07:04:51;;;;;;;904.47;846.50;;;8.20;99.90;;;;;;5013495;28;20453;-85
2022/10/10 07:07:18;;;;;;;903.67;848.40;;;8.40;99.90;;;;;;5014761;28;20857;-85
2022/10/10 07:09:46;;;;;;;879.03;827.40;;;8.50;99.90;;;;;;5012141;28;20861;-83
2022/10/10 07:12:12;;;;;;;859.07;810.77;;;8.60;99.90;;;;;;5013699;28;20872;-84
2022/10/10 07:14:39;;;;;;;788.60;747.40;;;8.80;99.90;;;;;;5012747;28;20476;-84
2022/10/10 07:17:06;;;;;;;746.07;709.07;;;8.90;99.90;;;;;;5012980;28;21109;-83
2022/10/10 07:19:32;;;;;;;693.43;661.73;;;9.00;99.90;;;;;;5013752;28;20461;-83
2022/10/10 07:22:00;;;;;;;633.27;604.97;;;9.10;99.90;;;;;;5013457;28;20456;-85
2022/10/10 07:24:27;;;;;;;573.43;548.70;;;9.20;99.90;;;;;;5011982;28;20461;-85
2022/10/10 07:26:55;;;;;;;517.50;494.80;;;9.40;99.90;;;;;;5012485;28;20485;-83
2022/10/10 07:29:21;;;;;;;445.20;428.50;;;9.60;99.90;;;;;;5012868;28;20453;-84
2022/10/10 07:31:48;;;;;;;345.23;332.80;;;9.60;99.90;;;;;;5012451;28;20460;-84
2022/10/10 07:34:15;;;;;;;296.30;285.97;;;9.70;99.90;;;;;;5012860;28;20473;-84
2022/10/10 07:36:42;;;;;;;235.43;227.13;;;9.70;99.90;;;;;;5012625;28;20480;-86
2022/10/10 07:39:10;;;;;;;204.97;197.17;;;9.80;99.90;;;;;;5013825;28;20815;-84
2022/10/10 07:41:37;;;;;;;147.17;141.30;;;9.90;99.90;;;;;;5013801;28;20521;-84
2022/10/10 07:44:03;;;;;;;146.03;140.23;;;9.90;99.90;;;;;;5013274;28;20445;-85
2022/10/10 07:46:32;;;;;;;129.83;124.83;;;10.00;99.90;;;;;;5012991;28;20481;-86
2022/10/10 07:48:58;;;;;;;141.67;136.47;;;10.00;99.90;;;;;;5013585;28;20465;-84
2022/10/10 07:51:25;;;;;;;148.57;143.30;;;10.00;99.90;;;;;;5013332;28;20461;-84
2022/10/10 07:53:52;;;;;;;160.43;154.57;;;10.10;99.90;;;;;;5013292;28;20547;-85
2022/10/10 07:56:20;;;;;;;175.47;169.07;;;10.20;99.90;;;;;;5012825;28;20469;-85
2022/10/10 07:58:47;;;;;;;174.13;166.93;;;10.20;99.90;;;;;;5013914;28;20457;-85
2022/10/10 08:01:14;;;;;;;146.67;141.17;;;10.30;99.90;;;;;;5012005;28;20865;-84
2022/10/10 08:03:41;;;;;;;114.90;110.40;;;10.30;99.90;;;;;;5013624;28;20826;-85
2022/10/10 08:06:10;;;;;;;121.63;115.47;;;10.30;99.90;;;;;;5013759;28;21000;-85
2022/10/10 08:08:37;;;;;;;137.10;131.50;;;10.20;99.90;;;;;;5013813;28;20488;-85
2022/10/10 08:11:04;;;;;;;140.37;134.93;;;10.30;99.90;;;;;;5013156;28;20449;-86
2022/10/10 08:13:33;;;;;;;136.33;131.20;;;10.30;99.90;;;;;;5014457;28;20558;-87
2022/10/10 08:16:00;;;;;;;141.90;136.60;;;10.30;99.90;;;;;;5014164;28;20486;-85
2022/10/10 08:18:26;;;;;;;114.87;109.97;;;10.30;99.90;;;;;;5015773;28;20212;-85
2022/10/10 08:20:59;;;;;;;190.83;183.33;;;10.20;99.90;;;;;;5013715;28;20453;-85
2022/10/10 08:23:26;;;;;;;220.43;213.13;;;10.40;99.90;;;;;;5015209;28;20453;-85
2022/10/10 08:25:52;;;;;;;248.47;240.17;;;10.40;99.90;;;;;;5069479;23;20452;-84
2022/10/10 08:28:19;;;;;;;298.30;287.83;;;10.50;99.90;;;;;;5021120;28;20820;-86
2022/10/10 08:30:47;;;;;;;304.13;293.50;;;10.60;99.90;;;;;;5021604;28;20989;-85
2022/10/10 08:33:14;;;;;;;275.80;266.30;;;10.80;99.90;;;;;;5020412;28;20481;-85
2022/10/10 08:35:41;;;;;;;242.33;233.90;;;11.10;99.90;;;;;;5020010;28;20504;-85
2022/10/10 08:38:08;;;;;;;248.37;239.70;;;11.10;99.90;;;;;;5020625;28;20460;-85
2022/10/10 08:40:43;;;;;;;187.47;180.70;;;11.40;99.90;;;;;;5020568;28;20457;-86
2022/10/10 08:43:17;;;;;;;179.47;172.97;;;11.60;99.90;;;;;;5018934;28;20448;-85
2022/10/10 08:45:44;;;;;;;83.77;79.47;;;11.80;99.90;;;;;;5017825;28;20433;-85
2022/10/10 08:48:16;;;;;;;27.30;24.63;;;12.20;99.90;;;;;;5017887;28;20650;-85
2022/10/10 08:50:45;;;;;;;25.47;12.83;;;12.60;99.90;;;;;;5016707;28;20861;-85
2022/10/10 08:53:20;;;;;;;19.30;8.40;;;13.10;99.90;;;;;;5016262;28;20473;-85
2022/10/10 08:55:48;;;;;;;11.00;7.70;;;13.50;99.80;;;;;;5016086;28;20830;-85
2022/10/10 08:58:20;;;;;;;10.00;6.53;;;14.00;98.50;;;;;;5016378;28;20453;-85
2022/10/10 09:00:51;;;;;;;15.83;6.67;;;14.50;95.70;;;;;;5021715;28;20457;-85
2022/10/10 09:03:27;;;;;;;14.93;6.33;;;14.90;94.50;;;;;;5028918;28;20489;-86
2022/10/10 09:06:05;;;;;;;10.33;5.13;;;15.30;93.20;;;;;;5027655;28;20473;-86
2022/10/10 09:08:45;;;;;;;12.77;5.67;;;15.70;91.50;;;;;;5028822;28;20460;-85
2022/10/10 09:11:22;;;;;;;9.30;4.70;;;16.20;88.60;;;;;;5028460;28;20454;-86
2022/10/10 09:13:58;;;;;;;13.07;5.40;;;16.40;85.70;;;;;;5024795;28;20992;-85
2022/10/10 09:16:35;;;;;;;13.00;5.90;;;16.80;84.10;;;;;;5031199;28;20476;-86
2022/10/10 09:19:13;;;;;;;14.83;5.50;;;17.40;81.60;;;;;;5031517;28;20458;-86
2022/10/10 09:21:43;;;;;;;10.50;4.50;;;17.80;79.20;;;;;;5032038;28;20458;-86
2022/10/10 09:24:16;;;;;;;9.20;4.73;;;17.90;76.30;;;;;;5031590;28;20453;-85
2022/10/10 09:26:47;;;;;;;10.67;4.40;;;18.30;75.20;;;;;;5030641;28;20492;-85
2022/10/10 09:29:25;;;;;;;8.00;4.87;;;18.50;72.40;;;;;;5031076;28;20464;-86
2022/10/10 09:31:57;;;;;;;10.17;4.00;;;19.00;69.40;;;;;;5031313;28;20765;-86
2022/10/10 09:34:32;;;;;;;11.30;4.07;;;19.40;68.90;;;;;;5030912;28;20489;-86
2022/10/10 09:37:01;;;;;;;7.97;3.60;;;19.80;66.40;;;;;;5030943;28;20474;-86
2022/10/10 09:39:37;;;;;;;10.90;4.67;;;20.10;63.50;;;;;;5031188;28;20516;-86
2022/10/10 09:42:09;;;;;;;7.13;3.63;;;20.50;63.70;;;;;;5031759;28;20459;-86
2022/10/10 09:44:36;;;;;;;10.63;4.00;;;20.90;61.00;;;;;;5030871;28;20452;-86
2022/10/10 09:47:02;;;;;;;9.70;4.10;;;21.40;59.00;;;;;;5031063;28;20877;-86
2022/10/10 09:49:31;;;;;;;6.27;3.10;;;21.60;56.40;;;;;;5030911;28;20833;-86
2022/10/10 09:52:00;;;;;;;12.13;3.57;;;21.90;55.00;;;;;;5030686;28;20459;-86
2022/10/10 09:54:28;;;;;;;12.10;4.00;;;21.60;54.00;;;;;;5031142;28;20486;-86
2022/10/10 09:56:57;;;;;;;8.10;3.53;;;21.00;54.20;;;;;;5031613;28;20476;-85
2022/10/10 09:59:43;;;;;;;10.20;3.37;;;20.70;53.90;;;;;;5030941;28;20455;-86
2022/10/10 10:02:17;;;;;;;6.40;2.73;;;20.20;53.40;;;;;;5031063;28;20522;-86
2022/10/10 10:04:46;;;;;;;8.80;3.00;;;20.10;54.60;;;;;;5031061;28;20453;-85
2022/10/10 10:07:23;;;;;;;10.17;2.60;;;20.30;54.20;;;;;;5035792;28;20472;-86
2022/10/10 10:09:52;;;;;;;8.83;3.20;;;20.40;53.60;;;;;;5039874;28;20628;-86
2022/10/10 10:12:25;;;;;;;9.80;2.87;;;20.50;52.50;;;;;;5038709;28;20456;-87
2022/10/10 10:14:57;;;;;;;8.97;3.30;;;20.60;50.60;;;;;;5037642;28;20478;-85
2022/10/10 10:17:24;;;;;;;12.97;2.90;;;20.80;47.10;;;;;;5035214;28;20484;-85
2022/10/10 10:19:52;;;;;;;11.20;2.60;;;20.90;49.20;;;;;;5027013;28;20505;-86
2022/10/10 10:22:31;;;;;;;8.87;2.60;;;21.20;47.70;;;;;;5026977;28;20451;-86
2022/10/10 10:24:58;;;;;;;8.27;2.73;;;21.00;45.30;;;;;;5026496;28;20455;-85
2022/10/10 10:27:26;;;;;;;8.20;2.50;;;21.00;49.50;;;;;;5027393;28;20479;-86
2022/10/10 10:29:55;;;;;;;20.90;3.13;;;21.20;46.50;;;;;;5027990;28;20469;-86
2022/10/10 10:32:41;;;;;;;11.33;2.80;;;21.50;45.80;;;;;;5028671;28;20455;-85
2022/10/10 10:35:28;;;;;;;8.37;3.00;;;22.00;46.20;;;;;;5027238;28;20484;-86
2022/10/10 10:38:15;;;;;;;11.00;2.57;;;22.40;40.40;;;;;;5028681;28;20477;-86
2022/10/10 10:40:47;;;;;;;10.00;3.00;;;22.60;39.90;;;;;;5026673;28;20453;-85
2022/10/10 10:43:45;;;;;;;9.27;3.17;;;23.70;36.30;;;;;;5022968;28;20456;-86
2022/10/10 10:46:27;;;;;;;8.00;2.20;;;24.90;30.60;;;;;;5014614;28;20473;-84
2022/10/10 10:49:01;;;;;;;13.70;2.70;;;25.80;26.80;;;;;;5014898;28;20897;-85
2022/10/10 10:51:50;;;;;;;10.80;2.90;;;25.20;25.90;;;;;;5014675;28;20445;-83
2022/10/10 10:54:31;;;;;;;12.53;2.47;;;24.60;27.00;;;;;;5014323;28;20513;-84
2022/10/10 10:57:05;;;;;;;8.37;2.50;;;24.10;27.20;;;;;;5014175;28;20484;-83
2022/10/10 10:59:44;;;;;;;7.37;3.17;;;23.80;27.90;;;;;;5014432;28;20457;-83
2022/10/10 11:02:32;;;;;;;13.30;3.37;;;24.00;29.10;;;;;;5014091;28;20463;-84
2022/10/10 11:05:15;;;;;;;10.50;4.63;;;24.20;27.10;;;;;;5013920;28;20445;-84
2022/10/10 11:07:55;;;;;;;9.33;2.90;;;24.20;26.90;;;;;;5014317;28;20479;-83
2022/10/10 11:10:31;;;;;;;9.10;3.30;;;24.20;27.00;;;;;;5014474;28;20441;-83
2022/10/10 11:13:11;;;;;;;11.60;2.40;;;24.30;26.00;;;;;;5014938;28;20922;-83
2022/10/10 11:15:41;;;;;;;9.13;2.63;;;24.30;26.40;;;;;;5014486;28;20485;-84
2022/10/10 11:18:13;;;;;;;13.07;3.13;;;23.90;25.50;;;;;;5014772;28;20457;-84
2022/10/10 11:20:44;;;;;;;9.90;3.90;;;23.90;26.80;;;;;;5015300;28;20449;-84
2022/10/10 11:23:17;;;;;;;14.17;3.20;;;23.50;28.20;;;;;;5016040;28;20558;-83
2022/10/10 11:25:50;;;;;;;15.00;2.60;;;23.20;29.10;;;;;;5012727;28;20507;-84
2022/10/10 11:28:21;;;;;;;9.97;3.00;;;23.20;29.30;;;;;;5013897;28;20838;-84
2022/10/10 11:30:52;;;;;;;10.90;2.30;;;23.50;28.90;;;;;;5014371;28;20723;-85
2022/10/10 11:33:24;;;;;;;9.87;2.50;;;23.20;27.90;;;;;;5013540;28;20453;-85
2022/10/10 11:35:55;;;;;;;9.67;2.93;;;23.10;29.30;;;;;;5013020;28;20488;-85
2022/10/10 11:38:30;;;;;;;6.73;2.40;;;23.50;29.50;;;;;;5013145;28;20511;-84
2022/10/10 11:41:00;;;;;;;7.47;2.30;;;23.00;29.20;;;;;;5013565;28;20458;-84
2022/10/10 11:43:39;;;;;;;10.40;3.60;;;22.90;30.90;;;;;;5013793;28;20460;-85
2022/10/10 11:46:21;;;;;;;14.93;3.10;;;22.60;32.80;;;;;;5012896;28;20498;-86
2022/10/10 11:48:55;;;;;;;10.03;3.70;;;22.50;33.20;;;;;;5013578;28;20812;-84
2022/10/10 11:51:37;;;;;;;13.80;3.20;;;22.30;35.30;;;;;;5013338;28;20466;-84
2022/10/10 11:54:13;;;;;;;11.93;2.33;;;22.00;35.40;;;;;;5013123;28;20460;-85
2022/10/10 11:56:42;;;;;;;11.17;3.20;;;21.80;37.00;;;;;;5014972;28;20474;-84
2022/10/10 11:59:16;;;;;;;10.83;3.03;;;21.70;38.70;;;;;;5020235;28;20457;-84
2022/10/10 12:01:48;;;;;;;9.43;3.60;;;21.40;38.20;;;;;;5016763;28;20462;-84
2022/10/10 12:04:15;;;;;;;13.00;3.30;;;21.20;39.60;;;;;;5014384;28;20463;-83
2022/10/10 12:06:45;;;;;;;13.80;3.03;;;21.20;39.40;;;;;;5019719;28;20860;-83
2022/10/10 12:09:18;;;;;;;10.33;3.03;;;21.10;41.00;;;;;;5018799;28;20465;-83
2022/10/10 12:11:50;;;;;;;19.33;4.57;;;21.20;41.20;;;;;;5019220;28;20980;-84
2022/10/10 12:14:19;;;;;;;16.57;3.03;;;21.40;41.70;;;;;;5019189;28;20481;-84
2022/10/10 12:16:47;;;;;;;8.40;2.67;;;21.50;40.20;;;;;;5019046;28;20469;-84
2022/10/10 12:19:18;;;;;;;18.63;2.93;;;21.80;42.40;;;;;;5018360;28;20455;-84
2022/10/10 12:21:57;;;;;;;9.27;2.60;;;22.00;40.20;;;;;;5017813;28;20490;-84
2022/10/10 12:24:26;;;;;;;10.10;2.70;;;22.20;39.30;;;;;;5018062;28;20195;-82
2022/10/10 12:27:25;;;;;;;7.90;2.13;;;22.50;35.80;;;;;;5018657;28;20478;-84
2022/10/10 12:30:14;;;;;;;8.93;2.30;;;22.80;37.90;;;;;;5028148;28;20448;-85
2022/10/10 12:32:42;;;;;;;13.40;3.03;;;22.70;31.40;;;;;;5027744;28;20455;-85
2022/10/10 12:35:29;;;;;;;20.93;2.90;;;22.70;34.10;;;;;;5026937;28;20861;-84
2022/10/10 12:38:29;;;;;;;16.70;3.20;;;22.50;31.30;;;;;;5026918;28;20518;-85
2022/10/10 12:41:10;;;;;;;12.17;3.20;;;22.10;32.20;;;;;;5027263;28;20449;-84
2022/10/10 12:43:48;;;;;;;10.47;2.90;;;21.90;34.50;;;;;;5025730;28;20459;-84
2022/10/10 12:46:26;;;;;;;15.43;2.60;;;21.80;34.50;;;;;;5026390;28;20470;-85